sensor_id;sensor_type;location;lat;lon;timestamp;pressure;altitude;pressure_sealevel;temperature;humidity
16355;BME280;8287;51.644;8.494;2023-01-26T00:01:37;101281.66;;;1.77;81.34
16355;BME280;8287;51.644;8.494;2023-01-26T00:04:05;101274.97;;;1.81;80.94
16355;BME280;8287;51.644;8.494;2023-01-26T00:06:32;101273.84;;;1.89;80.81
16355;BME280;8287;51.644;8.494;2023-01-26T00:08:58;101277.00;;;1.79;81.06
16355;BME280;8287;51.644;8.494;2023-01-26T00:11:26;101273.09;;;1.70;80.92
16355;BME280;8287;51.644;8.494;2023-01-26T00:13:54;101271.09;;;1.72;80.85
16355;BME280;8287;51.644;8.494;2023-01-26T00:16:21;101261.44;;;1.73;80.85
16355;BME280;8287;51.644;8.494;2023-01-26T00:18:48;101269.63;;;1.76;80.83
16355;BME280;8287;51.644;8.494;2023-01-26T00:21:17;101262.09;;;1.68;80.84
16355;BME280;8287;51.644;8.494;2023-01-26T00:23:45;101262.81;;;1.75;80.69
16355;BME280;8287;51.644;8.494;2023-01-26T00:26:15;101252.00;;;1.72;80.50
16355;BME280;8287;51.644;8.494;2023-01-26T00:28:42;101245.75;;;1.73;80.46
16355;BME280;8287;51.644;8.494;2023-01-26T00:31:11;101246.31;;;1.75;80.17
16355;BME280;8287;51.644;8.494;2023-01-26T00:33:38;101234.75;;;1.71;80.74
16355;BME280;8287;51.644;8.494;2023-01-26T00:36:05;101236.78;;;1.69;80.56
16355;BME280;8287;51.644;8.494;2023-01-26T00:38:33;101240.53;;;1.73;80.63
16355;BME280;8287;51.644;8.494;2023-01-26T00:41:00;101243.03;;;1.68;80.84
16355;BME280;8287;51.644;8.494;2023-01-26T00:43:27;101239.03;;;1.65;81.02
16355;BME280;8287;51.644;8.494;2023-01-26T00:45:53;101234.53;;;1.72;81.20
16355;BME280;8287;51.644;8.494;2023-01-26T00:48:20;101235.19;;;1.68;81.13
16355;BME280;8287;51.644;8.494;2023-01-26T00:50:49;101231.78;;;1.67;81.02
16355;BME280;8287;51.644;8.494;2023-01-26T00:53:15;101233.00;;;1.65;81.04
16355;BME280;8287;51.644;8.494;2023-01-26T00:55:43;101226.88;;;1.59;80.70
16355;BME280;8287;51.644;8.494;2023-01-26T00:58:10;101225.94;;;1.54;80.95
16355;BME280;8287;51.644;8.494;2023-01-26T01:00:37;101212.69;;;1.55;80.87
16355;BME280;8287;51.644;8.494;2023-01-26T01:03:04;101218.56;;;1.62;80.72
16355;BME280;8287;51.644;8.494;2023-01-26T01:05:31;101221.44;;;1.61;80.83
16355;BME280;8287;51.644;8.494;2023-01-26T01:07:58;101225.38;;;1.63;81.10
16355;BME280;8287;51.644;8.494;2023-01-26T01:10:25;101226.31;;;1.57;80.93
16355;BME280;8287;51.644;8.494;2023-01-26T01:12:54;101221.09;;;1.57;81.04
16355;BME280;8287;51.644;8.494;2023-01-26T01:15:21;101220.63;;;1.60;80.92
16355;BME280;8287;51.644;8.494;2023-01-26T01:17:48;101213.59;;;1.61;80.84
16355;BME280;8287;51.644;8.494;2023-01-26T01:20:15;101212.94;;;1.65;80.66
16355;BME280;8287;51.644;8.494;2023-01-26T01:22:41;101205.44;;;1.69;80.99
16355;BME280;8287;51.644;8.494;2023-01-26T01:25:08;101202.47;;;1.65;81.06
16355;BME280;8287;51.644;8.494;2023-01-26T01:27:35;101205.84;;;1.54;80.93
16355;BME280;8287;51.644;8.494;2023-01-26T01:30:04;101215.84;;;1.57;80.86
16355;BME280;8287;51.644;8.494;2023-01-26T01:32:33;101204.97;;;1.60;80.88
16355;BME280;8287;51.644;8.494;2023-01-26T01:35:00;101205.66;;;1.67;80.83
16355;BME280;8287;51.644;8.494;2023-01-26T01:37:28;101201.25;;;1.68;80.98
16355;BME280;8287;51.644;8.494;2023-01-26T01:39:54;101195.91;;;1.74;80.72
16355;BME280;8287;51.644;8.494;2023-01-26T01:42:21;101201.13;;;1.74;81.48
16355;BME280;8287;51.644;8.494;2023-01-26T01:45:31;101194.22;;;1.80;81.14
16355;BME280;8287;51.644;8.494;2023-01-26T01:48:04;101189.53;;;1.70;81.21
16355;BME280;8287;51.644;8.494;2023-01-26T01:50:36;101183.06;;;1.73;80.86
16355;BME280;8287;51.644;8.494;2023-01-26T01:53:06;101180.00;;;1.76;80.64
16355;BME280;8287;51.644;8.494;2023-01-26T01:55:34;101173.28;;;1.68;80.47
16355;BME280;8287;51.644;8.494;2023-01-26T01:58:03;101168.19;;;1.73;80.89
16355;BME280;8287;51.644;8.494;2023-01-26T02:00:31;101164.56;;;1.74;80.88
16355;BME280;8287;51.644;8.494;2023-01-26T02:02:59;101171.50;;;1.69;80.65
16355;BME280;8287;51.644;8.494;2023-01-26T02:05:54;101158.41;;;1.57;81.01
16355;BME280;8287;51.644;8.494;2023-01-26T02:08:24;101155.44;;;1.54;81.07
16355;BME280;8287;51.644;8.494;2023-01-26T02:10:54;101145.69;;;1.61;81.56
16355;BME280;8287;51.644;8.494;2023-01-26T02:13:23;101150.44;;;1.52;81.06
16355;BME280;8287;51.644;8.494;2023-01-26T02:15:53;101144.66;;;1.50;81.93
16355;BME280;8287;51.644;8.494;2023-01-26T02:18:20;101144.53;;;1.57;81.79
16355;BME280;8287;51.644;8.494;2023-01-26T02:20:49;101135.69;;;1.69;81.52
16355;BME280;8287;51.644;8.494;2023-01-26T02:23:23;101139.13;;;1.70;81.21
16355;BME280;8287;51.644;8.494;2023-01-26T02:26:02;101128.13;;;1.68;80.48
16355;BME280;8287;51.644;8.494;2023-01-26T02:28:29;101133.41;;;1.61;81.15
16355;BME280;8287;51.644;8.494;2023-01-26T02:30:55;101120.94;;;1.52;80.83
16355;BME280;8287;51.644;8.494;2023-01-26T02:33:24;101127.16;;;1.62;81.14
16355;BME280;8287;51.644;8.494;2023-01-26T02:35:52;101129.78;;;1.62;81.30
16355;BME280;8287;51.644;8.494;2023-01-26T02:38:20;101128.44;;;1.71;81.10
16355;BME280;8287;51.644;8.494;2023-01-26T02:40:50;101135.94;;;1.79;80.88
16355;BME280;8287;51.644;8.494;2023-01-26T02:43:20;101127.88;;;1.69;80.17
16355;BME280;8287;51.644;8.494;2023-01-26T02:45:46;101128.88;;;1.68;81.09
16355;BME280;8287;51.644;8.494;2023-01-26T02:48:13;101128.69;;;1.81;80.67
16355;BME280;8287;51.644;8.494;2023-01-26T02:50:59;101125.59;;;1.84;80.65
16355;BME280;8287;51.644;8.494;2023-01-26T02:53:25;101120.50;;;1.78;80.71
16355;BME280;8287;51.644;8.494;2023-01-26T02:55:52;101129.81;;;1.85;80.81
16355;BME280;8287;51.644;8.494;2023-01-26T02:58:17;101121.06;;;1.80;80.64
16355;BME280;8287;51.644;8.494;2023-01-26T03:00:45;101121.75;;;1.87;80.99
16355;BME280;8287;51.644;8.494;2023-01-26T03:03:13;101118.78;;;1.95;80.75
16355;BME280;8287;51.644;8.494;2023-01-26T03:05:40;101120.81;;;1.93;80.75
16355;BME280;8287;51.644;8.494;2023-01-26T03:08:07;101126.28;;;1.91;80.88
16355;BME280;8287;51.644;8.494;2023-01-26T03:10:35;101124.78;;;1.95;81.02
16355;BME280;8287;51.644;8.494;2023-01-26T03:13:02;101126.38;;;1.96;80.97
16355;BME280;8287;51.644;8.494;2023-01-26T03:15:29;101128.44;;;1.94;81.02
16355;BME280;8287;51.644;8.494;2023-01-26T03:18:11;101132.53;;;1.90;81.28
16355;BME280;8287;51.644;8.494;2023-01-26T03:20:55;101116.19;;;1.83;81.94
16355;BME280;8287;51.644;8.494;2023-01-26T03:23:40;101120.50;;;1.89;82.43
16355;BME280;8287;51.644;8.494;2023-01-26T03:26:25;101133.56;;;1.89;82.25
16355;BME280;8287;51.644;8.494;2023-01-26T03:29:09;101132.97;;;1.87;82.32
16355;BME280;8287;51.644;8.494;2023-01-26T03:31:35;101131.03;;;1.83;82.49
16355;BME280;8287;51.644;8.494;2023-01-26T03:34:04;101123.47;;;1.81;82.68
16355;BME280;8287;51.644;8.494;2023-01-26T03:36:30;101131.63;;;1.85;82.78
16355;BME280;8287;51.644;8.494;2023-01-26T03:38:57;101133.44;;;1.84;83.13
16355;BME280;8287;51.644;8.494;2023-01-26T03:41:23;101127.88;;;1.81;83.79
16355;BME280;8287;51.644;8.494;2023-01-26T03:44:07;101130.28;;;1.82;83.57
16355;BME280;8287;51.644;8.494;2023-01-26T03:46:51;101126.63;;;1.83;84.07
16355;BME280;8287;51.644;8.494;2023-01-26T03:49:37;101130.47;;;1.81;84.78
16355;BME280;8287;51.644;8.494;2023-01-26T03:52:21;101122.44;;;1.82;84.72
16355;BME280;8287;51.644;8.494;2023-01-26T03:55:06;101127.09;;;1.80;84.98
16355;BME280;8287;51.644;8.494;2023-01-26T03:57:50;101119.81;;;1.82;85.40
16355;BME280;8287;51.644;8.494;2023-01-26T04:00:17;101119.25;;;1.80;84.96
16355;BME280;8287;51.644;8.494;2023-01-26T04:02:44;101127.41;;;1.84;84.69
16355;BME280;8287;51.644;8.494;2023-01-26T04:05:29;101108.91;;;1.85;84.77
16355;BME280;8287;51.644;8.494;2023-01-26T04:08:13;101115.16;;;1.84;84.91
16355;BME280;8287;51.644;8.494;2023-01-26T04:10:46;101114.59;;;1.82;84.94
16355;BME280;8287;51.644;8.494;2023-01-26T04:13:12;101116.97;;;1.84;84.90
16355;BME280;8287;51.644;8.494;2023-01-26T04:15:56;101120.59;;;1.83;85.34
16355;BME280;8287;51.644;8.494;2023-01-26T04:18:40;101112.66;;;1.78;85.41
16355;BME280;8287;51.644;8.494;2023-01-26T04:21:26;101108.34;;;1.72;85.23
16355;BME280;8287;51.644;8.494;2023-01-26T04:23:54;101117.09;;;1.77;85.31
16355;BME280;8287;51.644;8.494;2023-01-26T04:26:24;101106.19;;;1.80;85.48
16355;BME280;8287;51.644;8.494;2023-01-26T04:28:51;101100.97;;;1.80;85.54
16355;BME280;8287;51.644;8.494;2023-01-26T04:31:18;101103.59;;;1.80;85.77
16355;BME280;8287;51.644;8.494;2023-01-26T04:33:44;101096.53;;;1.81;85.89
16355;BME280;8287;51.644;8.494;2023-01-26T04:36:11;101105.72;;;1.83;85.76
16355;BME280;8287;51.644;8.494;2023-01-26T04:38:39;101101.53;;;1.82;85.73
16355;BME280;8287;51.644;8.494;2023-01-26T04:41:05;101108.13;;;1.85;85.75
16355;BME280;8287;51.644;8.494;2023-01-26T04:43:32;101100.59;;;1.88;85.89
16355;BME280;8287;51.644;8.494;2023-01-26T04:46:00;101091.09;;;1.82;85.89
16355;BME280;8287;51.644;8.494;2023-01-26T04:48:27;101090.06;;;1.83;85.76
16355;BME280;8287;51.644;8.494;2023-01-26T04:50:55;101091.31;;;1.81;86.26
16355;BME280;8287;51.644;8.494;2023-01-26T04:53:22;101097.91;;;1.83;85.93
16355;BME280;8287;51.644;8.494;2023-01-26T04:55:50;101091.09;;;1.82;85.94
16355;BME280;8287;51.644;8.494;2023-01-26T04:58:17;101093.22;;;1.85;86.09
16355;BME280;8287;51.644;8.494;2023-01-26T05:00:43;101091.19;;;1.87;86.11
16355;BME280;8287;51.644;8.494;2023-01-26T05:03:10;101089.38;;;1.88;86.08
16355;BME280;8287;51.644;8.494;2023-01-26T05:05:38;101091.75;;;1.89;86.16
16355;BME280;8287;51.644;8.494;2023-01-26T05:08:05;101091.28;;;1.92;86.45
16355;BME280;8287;51.644;8.494;2023-01-26T05:10:32;101081.75;;;1.86;86.54
16355;BME280;8287;51.644;8.494;2023-01-26T05:13:00;101077.00;;;1.83;86.73
16355;BME280;8287;51.644;8.494;2023-01-26T05:15:26;101080.06;;;1.80;86.48
16355;BME280;8287;51.644;8.494;2023-01-26T05:17:53;101086.88;;;1.81;86.46
16355;BME280;8287;51.644;8.494;2023-01-26T05:20:19;101077.78;;;1.84;86.42
16355;BME280;8287;51.644;8.494;2023-01-26T05:22:46;101084.38;;;1.86;86.48
16355;BME280;8287;51.644;8.494;2023-01-26T05:25:13;101080.06;;;1.80;86.77
16355;BME280;8287;51.644;8.494;2023-01-26T05:27:39;101078.47;;;1.79;87.01
16355;BME280;8287;51.644;8.494;2023-01-26T05:30:09;101070.97;;;1.83;86.79
16355;BME280;8287;51.644;8.494;2023-01-26T05:32:36;101079.13;;;1.75;87.26
16355;BME280;8287;51.644;8.494;2023-01-26T05:35:04;101075.28;;;1.77;86.99
16355;BME280;8287;51.644;8.494;2023-01-26T05:37:32;101077.81;;;1.72;87.25
16355;BME280;8287;51.644;8.494;2023-01-26T05:39:59;101084.72;;;1.78;87.25
16355;BME280;8287;51.644;8.494;2023-01-26T05:42:26;101080.50;;;1.77;87.16
16355;BME280;8287;51.644;8.494;2023-01-26T05:44:52;101086.97;;;1.75;87.49
16355;BME280;8287;51.644;8.494;2023-01-26T05:47:20;101093.00;;;1.75;87.30
16355;BME280;8287;51.644;8.494;2023-01-26T05:49:47;101101.28;;;1.84;87.32
16355;BME280;8287;51.644;8.494;2023-01-26T05:52:15;101104.25;;;1.76;87.67
16355;BME280;8287;51.644;8.494;2023-01-26T05:54:42;101111.31;;;1.87;87.92
16355;BME280;8287;51.644;8.494;2023-01-26T05:57:10;101109.13;;;1.84;87.98
16355;BME280;8287;51.644;8.494;2023-01-26T05:59:37;101106.06;;;1.87;87.97
16355;BME280;8287;51.644;8.494;2023-01-26T06:02:03;101106.75;;;1.82;88.00
16355;BME280;8287;51.644;8.494;2023-01-26T06:04:32;101101.63;;;1.87;87.94
16355;BME280;8287;51.644;8.494;2023-01-26T06:06:58;101107.88;;;1.86;87.57
16355;BME280;8287;51.644;8.494;2023-01-26T06:09:25;101108.00;;;1.91;87.68
16355;BME280;8287;51.644;8.494;2023-01-26T06:11:52;101109.25;;;1.89;87.66
16355;BME280;8287;51.644;8.494;2023-01-26T06:14:18;101107.19;;;1.91;87.79
16355;BME280;8287;51.644;8.494;2023-01-26T06:16:45;101109.47;;;1.87;87.53
16355;BME280;8287;51.644;8.494;2023-01-26T06:19:11;101105.25;;;1.86;87.32
16355;BME280;8287;51.644;8.494;2023-01-26T06:21:39;101105.38;;;1.91;87.31
16355;BME280;8287;51.644;8.494;2023-01-26T06:24:06;101106.84;;;1.87;87.46
16355;BME280;8287;51.644;8.494;2023-01-26T06:26:33;101108.91;;;1.85;87.46
16355;BME280;8287;51.644;8.494;2023-01-26T06:28:59;101107.88;;;1.86;87.76
16355;BME280;8287;51.644;8.494;2023-01-26T06:31:26;101101.41;;;1.89;88.01
16355;BME280;8287;51.644;8.494;2023-01-26T06:33:53;101104.69;;;1.96;87.78
16355;BME280;8287;51.644;8.494;2023-01-26T06:36:20;101105.94;;;1.93;87.54
16355;BME280;8287;51.644;8.494;2023-01-26T06:38:49;101109.72;;;1.97;88.12
16355;BME280;8287;51.644;8.494;2023-01-26T06:41:17;101107.88;;;1.98;88.39
16355;BME280;8287;51.644;8.494;2023-01-26T06:43:44;101105.81;;;2.00;88.20
16355;BME280;8287;51.644;8.494;2023-01-26T06:46:11;101102.78;;;2.03;87.68
16355;BME280;8287;51.644;8.494;2023-01-26T06:48:38;101108.22;;;2.01;87.50
16355;BME280;8287;51.644;8.494;2023-01-26T06:51:37;101112.75;;;2.06;87.83
16355;BME280;8287;51.644;8.494;2023-01-26T06:54:10;101115.84;;;2.03;87.76
16355;BME280;8287;51.644;8.494;2023-01-26T06:56:37;101121.84;;;2.03;87.56
16355;BME280;8287;51.644;8.494;2023-01-26T06:59:04;101112.88;;;1.99;87.51
16355;BME280;8287;51.644;8.494;2023-01-26T07:01:34;101105.03;;;1.99;87.85
16355;BME280;8287;51.644;8.494;2023-01-26T07:04:01;101122.19;;;2.07;87.88
16355;BME280;8287;51.644;8.494;2023-01-26T07:06:28;101121.84;;;2.03;87.79
16355;BME280;8287;51.644;8.494;2023-01-26T07:08:54;101123.44;;;2.04;87.85
16355;BME280;8287;51.644;8.494;2023-01-26T07:11:22;101115.50;;;1.99;87.74
16355;BME280;8287;51.644;8.494;2023-01-26T07:13:50;101113.44;;;2.01;87.62
16355;BME280;8287;51.644;8.494;2023-01-26T07:16:16;101115.16;;;1.96;87.86
16355;BME280;8287;51.644;8.494;2023-01-26T07:18:43;101117.09;;;2.00;87.87
16355;BME280;8287;51.644;8.494;2023-01-26T07:21:13;101114.25;;;2.02;88.14
16355;BME280;8287;51.644;8.494;2023-01-26T07:23:40;101116.19;;;2.06;87.61
16355;BME280;8287;51.644;8.494;2023-01-26T07:26:07;101124.00;;;2.06;88.02
16355;BME280;8287;51.644;8.494;2023-01-26T07:28:35;101120.38;;;1.96;87.89
16355;BME280;8287;51.644;8.494;2023-01-26T07:31:02;101117.31;;;1.99;87.74
16355;BME280;8287;51.644;8.494;2023-01-26T07:33:30;101117.41;;;2.04;87.43
16355;BME280;8287;51.644;8.494;2023-01-26T07:35:58;101110.50;;;1.86;88.27
16355;BME280;8287;51.644;8.494;2023-01-26T07:38:25;101109.25;;;2.00;88.17
16355;BME280;8287;51.644;8.494;2023-01-26T07:40:53;101106.97;;;2.04;87.75
16355;BME280;8287;51.644;8.494;2023-01-26T07:43:19;101104.47;;;1.97;87.80
16355;BME280;8287;51.644;8.494;2023-01-26T07:45:49;101120.81;;;2.04;88.11
16355;BME280;8287;51.644;8.494;2023-01-26T07:48:16;101114.25;;;2.02;87.92
16355;BME280;8287;51.644;8.494;2023-01-26T07:50:43;101119.47;;;2.02;88.06
16355;BME280;8287;51.644;8.494;2023-01-26T07:53:11;101114.91;;;2.09;87.91
16355;BME280;8287;51.644;8.494;2023-01-26T07:55:39;101117.16;;;2.05;87.86
16355;BME280;8287;51.644;8.494;2023-01-26T07:58:08;101118.44;;;2.03;88.03
16355;BME280;8287;51.644;8.494;2023-01-26T08:00:34;101119.78;;;2.05;88.36
16355;BME280;8287;51.644;8.494;2023-01-26T08:03:02;101126.72;;;2.00;88.31
16355;BME280;8287;51.644;8.494;2023-01-26T08:05:30;101130.25;;;2.05;87.99
16355;BME280;8287;51.644;8.494;2023-01-26T08:07:57;101129.34;;;2.11;88.33
16355;BME280;8287;51.644;8.494;2023-01-26T08:10:24;101125.59;;;2.07;88.28
16355;BME280;8287;51.644;8.494;2023-01-26T08:12:50;101125.69;;;2.12;88.17
16355;BME280;8287;51.644;8.494;2023-01-26T08:15:17;101120.72;;;2.11;88.38
16355;BME280;8287;51.644;8.494;2023-01-26T08:17:43;101128.56;;;2.11;88.16
16355;BME280;8287;51.644;8.494;2023-01-26T08:20:11;101120.47;;;2.12;88.17
16355;BME280;8287;51.644;8.494;2023-01-26T08:22:38;101123.53;;;2.09;88.00
16355;BME280;8287;51.644;8.494;2023-01-26T08:25:05;101123.41;;;2.16;87.91
16355;BME280;8287;51.644;8.494;2023-01-26T08:27:32;101119.69;;;2.12;87.92
16355;BME280;8287;51.644;8.494;2023-01-26T08:29:59;101130.47;;;2.15;88.25
16355;BME280;8287;51.644;8.494;2023-01-26T08:32:25;101132.84;;;2.17;87.89
16355;BME280;8287;51.644;8.494;2023-01-26T08:34:53;101132.50;;;2.13;88.16
16355;BME280;8287;51.644;8.494;2023-01-26T08:37:21;101140.25;;;2.20;88.04
16355;BME280;8287;51.644;8.494;2023-01-26T08:39:48;101134.13;;;2.14;88.22
16355;BME280;8287;51.644;8.494;2023-01-26T08:42:14;101129.66;;;2.15;88.09
16355;BME280;8287;51.644;8.494;2023-01-26T08:44:41;101127.41;;;2.18;88.02
16355;BME280;8287;51.644;8.494;2023-01-26T08:47:07;101134.00;;;2.21;88.03
16355;BME280;8287;51.644;8.494;2023-01-26T08:49:34;101130.69;;;2.25;87.71
16355;BME280;8287;51.644;8.494;2023-01-26T08:52:01;101139.09;;;2.27;88.13
16355;BME280;8287;51.644;8.494;2023-01-26T08:54:29;101139.75;;;2.34;88.05
16355;BME280;8287;51.644;8.494;2023-01-26T08:56:56;101124.06;;;2.34;87.84
16355;BME280;8287;51.644;8.494;2023-01-26T08:59:23;101126.81;;;2.39;87.77
16355;BME280;8287;51.644;8.494;2023-01-26T09:01:49;101131.91;;;2.34;87.91
16355;BME280;8287;51.644;8.494;2023-01-26T09:04:16;101132.25;;;2.38;87.70
16355;BME280;8287;51.644;8.494;2023-01-26T09:06:43;101140.22;;;2.31;87.97
16355;BME280;8287;51.644;8.494;2023-01-26T09:09:09;101143.50;;;2.38;87.78
16355;BME280;8287;51.644;8.494;2023-01-26T09:11:38;101136.78;;;2.42;87.33
16355;BME280;8287;51.644;8.494;2023-01-26T09:14:05;101140.78;;;2.45;87.59
16355;BME280;8287;51.644;8.494;2023-01-26T09:16:32;101140.44;;;2.41;87.64
16355;BME280;8287;51.644;8.494;2023-01-26T09:18:59;101138.03;;;2.40;87.73
16355;BME280;8287;51.644;8.494;2023-01-26T09:21:25;101142.94;;;2.36;87.75
16355;BME280;8287;51.644;8.494;2023-01-26T09:23:52;101136.78;;;2.42;87.84
16355;BME280;8287;51.644;8.494;2023-01-26T09:26:20;101141.47;;;2.40;87.30
16355;BME280;8287;51.644;8.494;2023-01-26T09:28:50;101131.56;;;2.42;87.87
16355;BME280;8287;51.644;8.494;2023-01-26T09:31:17;101141.88;;;2.49;87.92
16355;BME280;8287;51.644;8.494;2023-01-26T09:33:43;101146.34;;;2.48;87.81
16355;BME280;8287;51.644;8.494;2023-01-26T09:36:11;101144.72;;;2.47;87.71
16355;BME280;8287;51.644;8.494;2023-01-26T09:38:38;101146.00;;;2.45;87.73
16355;BME280;8287;51.644;8.494;2023-01-26T09:41:09;101151.09;;;2.51;87.60
16355;BME280;8287;51.644;8.494;2023-01-26T09:43:42;101152.13;;;2.50;87.82
16355;BME280;8287;51.644;8.494;2023-01-26T09:46:20;101155.44;;;2.46;88.03
16355;BME280;8287;51.644;8.494;2023-01-26T09:48:58;101164.53;;;2.43;87.97
16355;BME280;8287;51.644;8.494;2023-01-26T09:51:31;101153.59;;;2.46;87.91
16355;BME280;8287;51.644;8.494;2023-01-26T09:54:01;101150.63;;;2.54;87.99
16355;BME280;8287;51.644;8.494;2023-01-26T09:56:30;101142.44;;;2.51;88.21
16355;BME280;8287;51.644;8.494;2023-01-26T09:59:02;101132.13;;;2.44;88.51
16355;BME280;8287;51.644;8.494;2023-01-26T10:01:36;101141.56;;;2.45;88.58
16355;BME280;8287;51.644;8.494;2023-01-26T10:04:11;101144.72;;;2.47;88.86
16355;BME280;8287;51.644;8.494;2023-01-26T10:06:39;101141.81;;;2.32;89.29
16355;BME280;8287;51.644;8.494;2023-01-26T10:09:13;101139.22;;;2.32;89.18
16355;BME280;8287;51.644;8.494;2023-01-26T10:11:43;101135.91;;;2.25;89.54
16355;BME280;8287;51.644;8.494;2023-01-26T10:14:14;101141.63;;;2.22;90.10
16355;BME280;8287;51.644;8.494;2023-01-26T10:16:48;101136.69;;;2.26;90.27
16355;BME280;8287;51.644;8.494;2023-01-26T10:19:20;101134.53;;;2.34;90.24
16355;BME280;8287;51.644;8.494;2023-01-26T10:21:55;101128.13;;;2.42;89.94
16355;BME280;8287;51.644;8.494;2023-01-26T10:24:24;101127.91;;;2.43;90.13
16355;BME280;8287;51.644;8.494;2023-01-26T10:26:52;101121.56;;;2.39;90.10
16355;BME280;8287;51.644;8.494;2023-01-26T10:29:21;101112.13;;;2.38;90.19
16355;BME280;8287;51.644;8.494;2023-01-26T10:31:49;101116.34;;;2.39;90.21
16355;BME280;8287;51.644;8.494;2023-01-26T10:34:20;101115.41;;;2.45;89.88
16355;BME280;8287;51.644;8.494;2023-01-26T10:36:48;101111.06;;;2.51;89.78
16355;BME280;8287;51.644;8.494;2023-01-26T10:39:15;101119.81;;;2.56;90.01
16355;BME280;8287;51.644;8.494;2023-01-26T10:41:55;101103.91;;;2.46;90.36
16355;BME280;8287;51.644;8.494;2023-01-26T10:44:28;101102.31;;;2.45;90.43
16355;BME280;8287;51.644;8.494;2023-01-26T10:47:16;101109.72;;;2.48;90.20
16355;BME280;8287;51.644;8.494;2023-01-26T10:49:44;101106.75;;;2.56;90.21
16355;BME280;8287;51.644;8.494;2023-01-26T10:52:15;101113.91;;;2.61;90.05
16355;BME280;8287;51.644;8.494;2023-01-26T10:54:43;101108.34;;;2.57;90.09
16355;BME280;8287;51.644;8.494;2023-01-26T10:57:16;101103.47;;;2.49;90.15
16355;BME280;8287;51.644;8.494;2023-01-26T10:59:49;101114.38;;;2.46;90.60
16355;BME280;8287;51.644;8.494;2023-01-26T11:02:23;101102.69;;;2.37;90.54
16355;BME280;8287;51.644;8.494;2023-01-26T11:05:01;101102.44;;;2.50;90.56
16355;BME280;8287;51.644;8.494;2023-01-26T11:07:32;101099.53;;;2.63;90.24
16355;BME280;8287;51.644;8.494;2023-01-26T11:10:16;101089.22;;;2.57;90.25
16355;BME280;8287;51.644;8.494;2023-01-26T11:12:44;101102.47;;;2.67;90.13
16355;BME280;8287;51.644;8.494;2023-01-26T11:15:15;101095.00;;;2.59;90.56
16355;BME280;8287;51.644;8.494;2023-01-26T11:17:49;101085.91;;;2.61;90.29
16355;BME280;8287;51.644;8.494;2023-01-26T11:20:36;101092.97;;;2.61;90.32
16355;BME280;8287;51.644;8.494;2023-01-26T11:23:13;101084.97;;;2.67;90.19
16355;BME280;8287;51.644;8.494;2023-01-26T11:25:52;101081.31;;;2.68;90.38
16355;BME280;8287;51.644;8.494;2023-01-26T11:28:35;101079.38;;;2.75;89.96
16355;BME280;8287;51.644;8.494;2023-01-26T11:31:15;101081.09;;;2.70;90.01
16355;BME280;8287;51.644;8.494;2023-01-26T11:33:54;101064.31;;;2.82;89.87
16355;BME280;8287;51.644;8.494;2023-01-26T11:36:32;101062.25;;;2.84;90.14
16355;BME280;8287;51.644;8.494;2023-01-26T11:39:13;101062.63;;;2.76;89.94
16355;BME280;8287;51.644;8.494;2023-01-26T11:41:52;101052.44;;;2.91;90.04
16355;BME280;8287;51.644;8.494;2023-01-26T11:44:45;101036.66;;;2.86;90.04
16355;BME280;8287;51.644;8.494;2023-01-26T11:47:25;101052.56;;;2.85;90.23
16355;BME280;8287;51.644;8.494;2023-01-26T11:50:05;101051.31;;;2.87;90.32
16355;BME280;8287;51.644;8.494;2023-01-26T11:52:47;101045.44;;;2.80;90.12
16355;BME280;8287;51.644;8.494;2023-01-26T11:55:23;101046.19;;;2.92;89.86
16355;BME280;8287;51.644;8.494;2023-01-26T11:58:02;101044.81;;;2.90;90.28
16355;BME280;8287;51.644;8.494;2023-01-26T12:00:37;101051.78;;;2.84;90.39
16355;BME280;8287;51.644;8.494;2023-01-26T12:03:14;101053.53;;;2.79;90.46
16355;BME280;8287;51.644;8.494;2023-01-26T12:05:46;101048.63;;;2.82;90.27
16355;BME280;8287;51.644;8.494;2023-01-26T12:08:19;101048.84;;;2.81;90.59
16355;BME280;8287;51.644;8.494;2023-01-26T12:10:49;101042.34;;;2.83;90.51
16355;BME280;8287;51.644;8.494;2023-01-26T12:13:22;101051.78;;;2.84;91.07
16355;BME280;8287;51.644;8.494;2023-01-26T12:15:55;101041.72;;;2.76;90.58
16355;BME280;8287;51.644;8.494;2023-01-26T12:18:28;101042.19;;;2.73;91.33
16355;BME280;8287;51.644;8.494;2023-01-26T12:21:02;101036.84;;;2.68;91.08
16355;BME280;8287;51.644;8.494;2023-01-26T12:23:36;101035.16;;;2.62;91.14
16355;BME280;8287;51.644;8.494;2023-01-26T12:26:10;101043.78;;;2.74;91.07
16355;BME280;8287;51.644;8.494;2023-01-26T12:28:43;101042.41;;;2.72;91.15
16355;BME280;8287;51.644;8.494;2023-01-26T12:31:17;101032.28;;;2.75;91.11
16355;BME280;8287;51.644;8.494;2023-01-26T12:33:50;101022.13;;;2.79;91.30
16355;BME280;8287;51.644;8.494;2023-01-26T12:36:26;101026.09;;;2.81;91.19
16355;BME280;8287;51.644;8.494;2023-01-26T12:39:07;101022.53;;;2.87;90.83
16355;BME280;8287;51.644;8.494;2023-01-26T12:41:45;101023.06;;;2.89;91.28
16355;BME280;8287;51.644;8.494;2023-01-26T12:44:27;101026.34;;;2.96;91.22
16355;BME280;8287;51.644;8.494;2023-01-26T12:47:06;101023.59;;;3.03;90.67
16355;BME280;8287;51.644;8.494;2023-01-26T12:49:39;101024.22;;;2.93;91.03
16355;BME280;8287;51.644;8.494;2023-01-26T12:52:14;101020.06;;;2.97;90.74
16355;BME280;8287;51.644;8.494;2023-01-26T12:54:46;101018.09;;;3.04;90.87
16355;BME280;8287;51.644;8.494;2023-01-26T12:57:17;101017.56;;;3.02;90.82
16355;BME280;8287;51.644;8.494;2023-01-26T12:59:45;101013.91;;;3.03;90.76
16355;BME280;8287;51.644;8.494;2023-01-26T13:02:24;101012.88;;;3.04;90.07
16355;BME280;8287;51.644;8.494;2023-01-26T13:04:52;101001.94;;;3.07;89.95
16355;BME280;8287;51.644;8.494;2023-01-26T13:07:30;101006.78;;;3.15;90.33
16355;BME280;8287;51.644;8.494;2023-01-26T13:10:20;101000.97;;;3.13;90.48
16355;BME280;8287;51.644;8.494;2023-01-26T13:12:48;101003.34;;;3.14;90.43
16355;BME280;8287;51.644;8.494;2023-01-26T13:15:18;101007.16;;;3.07;90.32
16355;BME280;8287;51.644;8.494;2023-01-26T13:17:50;101005.16;;;3.14;90.46
16355;BME280;8287;51.644;8.494;2023-01-26T13:20:41;101009.94;;;3.17;90.15
16355;BME280;8287;51.644;8.494;2023-01-26T13:23:38;101009.31;;;3.10;90.22
16355;BME280;8287;51.644;8.494;2023-01-26T13:29:32;101003.97;;;3.05;90.42
16355;BME280;8287;51.644;8.494;2023-01-26T13:32:49;100995.66;;;3.08;90.65